createdAt,value
2023-04-19T00:01:16.457Z,65.47
2023-04-19T00:03:43.145Z,65.73
2023-04-19T00:06:10.383Z,65.93
2023-04-19T00:08:36.917Z,65.75
2023-04-19T00:11:03.441Z,66.11
2023-04-19T00:13:30.006Z,66.16
2023-04-19T00:15:56.532Z,66.55
2023-04-19T00:18:23.244Z,66.48
2023-04-19T00:20:49.843Z,67.11
2023-04-19T00:23:16.387Z,67.26
2023-04-19T00:25:42.936Z,67.25
2023-04-19T00:28:09.536Z,67.26
2023-04-19T00:30:36.207Z,67.13
2023-04-19T00:33:02.829Z,67.34
2023-04-19T00:35:29.403Z,67.65
2023-04-19T00:37:56.028Z,67.78
2023-04-19T00:40:22.677Z,67.66
2023-04-19T00:42:49.220Z,68.03
2023-04-19T00:45:15.872Z,68.15
2023-04-19T00:47:42.440Z,68.16
2023-04-19T00:50:09.473Z,68.68
2023-04-19T00:52:36.631Z,68.70
2023-04-19T00:55:04.598Z,68.84
2023-04-19T00:57:31.458Z,68.78
2023-04-19T00:59:58.939Z,69.11
2023-04-19T01:02:25.983Z,69.26
2023-04-19T01:04:52.828Z,69.51
2023-04-19T01:07:19.563Z,69.54
2023-04-19T01:09:46.841Z,69.68
2023-04-19T01:12:13.570Z,69.70
2023-04-19T01:14:40.419Z,69.70
2023-04-19T01:17:08.495Z,69.89
2023-04-19T01:19:36.484Z,69.96
2023-04-19T01:22:04.028Z,70.17
2023-04-19T01:24:30.886Z,70.11
2023-04-19T01:26:57.505Z,70.25
2023-04-19T01:29:24.053Z,70.14
2023-04-19T01:31:54.094Z,70.23
2023-04-19T01:34:20.949Z,70.24
2023-04-19T01:36:47.465Z,70.27
2023-04-19T01:39:14.117Z,70.34
2023-04-19T01:41:40.940Z,70.63
2023-04-19T01:44:07.694Z,70.65
2023-04-19T01:46:34.418Z,70.55
2023-04-19T01:49:00.992Z,71.05
2023-04-19T01:51:27.988Z,71.03
2023-04-19T01:53:54.780Z,71.38
2023-04-19T01:56:24.318Z,71.48
2023-04-19T01:58:51.162Z,71.59
2023-04-19T02:01:17.759Z,71.69
2023-04-19T02:03:44.741Z,71.67
2023-04-19T02:06:12.720Z,72.14
2023-04-19T02:08:40.119Z,72.29
2023-04-19T02:11:11.056Z,72.35
2023-04-19T02:13:37.965Z,72.62
2023-04-19T02:16:06.130Z,72.68
2023-04-19T02:18:33.301Z,72.58
2023-04-19T02:21:00.573Z,72.63
2023-04-19T02:23:27.415Z,73.05
2023-04-19T02:25:54.016Z,72.89
2023-04-19T02:28:20.725Z,73.34
2023-04-19T02:30:47.252Z,73.03
2023-04-19T02:33:14.370Z,73.76
2023-04-19T02:35:40.990Z,73.88
2023-04-19T02:38:07.624Z,73.93
2023-04-19T02:40:34.154Z,74.14
2023-04-19T02:43:00.695Z,74.49
2023-04-19T02:45:27.227Z,73.98
2023-04-19T02:47:53.817Z,73.94
2023-04-19T02:50:20.442Z,74.07
2023-04-19T02:52:47.002Z,74.20
2023-04-19T02:55:13.558Z,73.86
2023-04-19T02:57:40.154Z,73.76
2023-04-19T03:00:08.855Z,74.17
2023-04-19T03:02:35.540Z,74.05
2023-04-19T03:05:02.340Z,73.94
2023-04-19T03:07:28.924Z,74.03
2023-04-19T03:09:55.502Z,73.84
2023-04-19T03:12:22.068Z,74.41
2023-04-19T03:14:49.394Z,74.35
2023-04-19T03:17:16.454Z,74.16
2023-04-19T03:19:42.968Z,74.25
2023-04-19T03:22:09.496Z,74.18
2023-04-19T03:24:37.968Z,74.11
2023-04-19T03:27:04.827Z,74.11
2023-04-19T03:29:31.326Z,74.10
2023-04-19T03:31:57.872Z,74.17
2023-04-19T03:34:24.463Z,74.38
2023-04-19T03:36:51.025Z,74.17
2023-04-19T03:39:17.606Z,74.36
2023-04-19T03:41:44.125Z,74.22
2023-04-19T03:44:10.705Z,74.29
2023-04-19T03:46:37.466Z,74.75
2023-04-19T03:49:04.144Z,74.68
2023-04-19T03:51:31.551Z,74.50
2023-04-19T03:53:58.187Z,74.81
2023-04-19T03:56:24.841Z,75.19
2023-04-19T03:58:51.811Z,75.17
2023-04-19T04:01:22.342Z,75.05
2023-04-19T04:03:49.152Z,74.79
2023-04-19T04:06:16.174Z,75.01
2023-04-19T04:08:42.743Z,74.74
2023-04-19T04:11:09.465Z,74.70
2023-04-19T04:13:36.053Z,74.91
2023-04-19T04:16:02.647Z,74.78
2023-04-19T04:18:29.266Z,74.44
2023-04-19T04:20:55.778Z,74.48
2023-04-19T04:23:23.232Z,74.76
2023-04-19T04:25:59.279Z,74.70
2023-04-19T04:28:25.878Z,74.65
2023-04-19T04:30:52.442Z,74.84
2023-04-19T04:33:19.009Z,75.08
2023-04-19T04:35:45.582Z,75.36
2023-04-19T04:38:23.517Z,75.18
2023-04-19T04:40:54.900Z,75.40
2023-04-19T04:43:25.977Z,75.07
2023-04-19T04:45:55.654Z,75.48
2023-04-19T04:48:22.412Z,75.43
2023-04-19T04:50:48.985Z,75.72
2023-04-19T04:53:15.821Z,75.89
2023-04-19T04:55:42.388Z,76.03
2023-04-19T04:58:08.984Z,75.45
2023-04-19T05:00:35.932Z,73.79
2023-04-19T05:03:03.246Z,72.93
2023-04-19T05:05:30.101Z,70.49
2023-04-19T05:07:56.646Z,70.13
2023-04-19T05:10:23.355Z,69.66
2023-04-19T05:12:50.048Z,69.12
2023-04-19T05:15:16.761Z,68.56
2023-04-19T05:17:43.506Z,67.37
2023-04-19T05:20:10.859Z,67.80
2023-04-19T05:22:37.702Z,68.21
2023-04-19T05:25:04.909Z,68.19
2023-04-19T05:27:31.565Z,67.35
2023-04-19T05:29:58.119Z,67.07
2023-04-19T05:32:24.678Z,66.75
2023-04-19T05:34:51.244Z,66.04
2023-04-19T05:37:17.782Z,65.91
2023-04-19T05:39:44.774Z,65.43
2023-04-19T05:42:11.704Z,65.16
2023-04-19T05:44:38.253Z,64.30
2023-04-19T05:47:04.806Z,64.85
2023-04-19T05:49:31.597Z,64.18
2023-04-19T05:51:58.174Z,64.13
2023-04-19T05:54:24.894Z,63.50
2023-04-19T05:56:51.462Z,63.59
2023-04-19T05:59:18.088Z,63.46
2023-04-19T06:01:44.792Z,62.93
2023-04-19T06:04:11.571Z,62.52
2023-04-19T06:06:38.342Z,62.44
2023-04-19T06:09:04.953Z,62.42
2023-04-19T06:11:38.951Z,63.01
2023-04-19T06:14:10.812Z,62.68
2023-04-19T06:16:37.446Z,62.51
2023-04-19T06:19:03.994Z,62.08
2023-04-19T06:21:31.784Z,61.75
2023-04-19T06:23:58.586Z,61.94
2023-04-19T06:26:25.253Z,62.95
2023-04-19T06:28:51.890Z,63.48
2023-04-19T06:31:18.637Z,63.19
2023-04-19T06:33:46.089Z,63.44
2023-04-19T06:36:12.704Z,62.98
2023-04-19T06:38:39.960Z,63.29
2023-04-19T06:41:06.486Z,62.44
2023-04-19T06:43:33.119Z,62.42
2023-04-19T06:46:04.834Z,62.91
2023-04-19T06:48:31.399Z,63.45
2023-04-19T06:50:57.999Z,62.60
2023-04-19T06:53:24.792Z,62.27
2023-04-19T06:55:59.907Z,62.54
2023-04-19T06:58:27.322Z,62.46
2023-04-19T07:00:54.164Z,62.33
2023-04-19T07:03:21.529Z,62.20
2023-04-19T07:05:48.338Z,61.38
2023-04-19T07:08:16.083Z,61.10
2023-04-19T07:10:43.905Z,61.65
2023-04-19T07:13:13.399Z,61.53
2023-04-19T07:15:40.184Z,61.82
2023-04-19T07:18:07.165Z,61.15
2023-04-19T07:20:34.064Z,60.52
2023-04-19T07:23:00.867Z,61.00
2023-04-19T07:25:28.125Z,60.54
2023-04-19T07:27:55.662Z,61.42
2023-04-19T07:30:22.412Z,61.12
2023-04-19T07:32:51.590Z,60.84
2023-04-19T07:35:19.477Z,60.01
2023-04-19T07:37:46.397Z,60.45
2023-04-19T07:40:13.256Z,60.50
2023-04-19T07:42:40.014Z,60.37
2023-04-19T07:45:07.120Z,60.47
2023-04-19T07:47:33.690Z,60.47
2023-04-19T07:50:00.352Z,59.78
2023-04-19T07:52:26.975Z,60.37
2023-04-19T07:54:53.520Z,59.71
2023-04-19T07:57:20.135Z,59.85
2023-04-19T07:59:46.784Z,59.93
2023-04-19T08:02:13.489Z,59.67
2023-04-19T08:04:40.282Z,58.88
2023-04-19T08:07:07.208Z,58.84
2023-04-19T08:09:34.587Z,58.53
2023-04-19T08:12:01.634Z,58.90
2023-04-19T08:14:40.378Z,58.35
2023-04-19T08:17:25.170Z,58.33
2023-04-19T08:19:55.058Z,59.33
2023-04-19T08:22:21.702Z,59.18
2023-04-19T08:24:52.056Z,58.85
2023-04-19T08:27:19.109Z,59.12
2023-04-19T08:29:46.204Z,58.17
2023-04-19T08:32:13.404Z,58.87
2023-04-19T08:34:40.684Z,59.30
2023-04-19T08:37:07.634Z,59.12
2023-04-19T08:39:35.037Z,58.74
2023-04-19T08:42:13.428Z,58.72
2023-04-19T08:45:13.197Z,58.58
2023-04-19T08:47:48.533Z,58.41
2023-04-19T08:50:32.155Z,58.16
2023-04-19T08:53:16.305Z,57.97
2023-04-19T08:56:08.656Z,57.82
2023-04-19T08:58:57.042Z,57.78
2023-04-19T09:01:34.954Z,57.30
2023-04-19T09:04:34.050Z,57.44
2023-04-19T09:06:55.080Z,57.42
2023-04-19T09:09:35.410Z,56.07
2023-04-19T09:12:03.736Z,55.71
2023-04-19T09:14:30.648Z,55.39
2023-04-19T09:17:16.668Z,54.71
2023-04-19T09:19:50.669Z,54.35
2023-04-19T09:22:17.764Z,53.71
2023-04-19T09:27:19.590Z,53.94
2023-04-19T09:29:54.260Z,53.31
2023-04-19T09:32:21.681Z,52.89
2023-04-19T09:34:56.130Z,52.66
2023-04-19T09:37:41.416Z,52.77
2023-04-19T09:40:26.906Z,52.22
2023-04-19T09:48:05.472Z,51.58
2023-04-19T09:50:33.841Z,51.42
2023-04-19T09:53:03.675Z,51.61
2023-04-19T09:55:38.413Z,50.52
2023-04-19T09:58:11.652Z,51.25
2023-04-19T10:00:47.789Z,51.04
2023-04-19T10:03:18.167Z,50.81
2023-04-19T10:05:45.617Z,50.63
2023-04-19T10:08:13.310Z,50.69
2023-04-19T10:10:42.400Z,50.04
2023-04-19T10:15:51.287Z,50.33
2023-04-19T10:18:20.994Z,49.16
2023-04-19T10:20:57.203Z,49.46
2023-04-19T10:23:24.294Z,48.58
2023-04-19T10:25:57.576Z,48.81
2023-04-19T10:28:24.314Z,48.60
2023-04-19T10:31:02.347Z,48.69
2023-04-19T10:33:37.880Z,48.46
2023-04-19T10:36:08.658Z,48.38
2023-04-19T10:38:49.380Z,47.83
2023-04-19T10:41:18.698Z,47.55
2023-04-19T10:44:10.560Z,46.52
2023-04-19T10:46:40.816Z,46.05
2023-04-19T10:49:09.698Z,46.33
2023-04-19T10:51:38.936Z,46.29
2023-04-19T10:54:32.482Z,45.95
2023-04-19T10:57:05.538Z,45.38
2023-04-19T10:59:36.995Z,45.70
2023-04-19T11:02:06.034Z,46.44
2023-04-19T11:04:32.994Z,45.14
2023-04-19T11:07:02.037Z,44.65
2023-04-19T11:09:38.707Z,45.07
2023-04-19T11:12:11.381Z,44.71
2023-04-19T11:14:44.994Z,43.37
2023-04-19T11:17:28.200Z,43.72
2023-04-19T11:20:02.663Z,42.69
2023-04-19T11:22:34.099Z,43.48
2023-04-19T11:25:07.993Z,44.53
2023-04-19T11:27:35.401Z,45.21
2023-04-19T11:30:07.555Z,45.74
2023-04-19T11:32:34.892Z,45.67
2023-04-19T11:35:07.938Z,44.84
2023-04-19T11:37:36.459Z,45.65
2023-04-19T11:40:05.612Z,45.29
2023-04-19T11:42:33.928Z,44.93
2023-04-19T11:45:00.546Z,44.99
2023-04-19T11:47:27.650Z,45.07
2023-04-19T11:49:57.093Z,44.47
2023-04-19T11:52:25.617Z,44.37
2023-04-19T11:54:53.360Z,43.79
2023-04-19T11:57:31.066Z,44.11
2023-04-19T12:00:12.376Z,44.60
2023-04-19T12:02:41.110Z,45.15
2023-04-19T12:05:12.952Z,45.48
2023-04-19T12:08:18.389Z,45.73
2023-04-19T12:10:58.052Z,45.60
2023-04-19T12:13:27.483Z,46.42
2023-04-19T12:15:54.134Z,46.82
2023-04-19T12:18:20.737Z,46.63
2023-04-19T12:20:49.657Z,45.77
2023-04-19T12:23:17.397Z,46.02
2023-04-19T12:25:46.454Z,46.28
2023-04-19T12:28:14.447Z,46.06
2023-04-19T12:30:41.606Z,46.34
2023-04-19T12:33:09.105Z,46.21
2023-04-19T12:35:36.210Z,45.86
2023-04-19T12:38:05.533Z,46.91
2023-04-19T12:40:32.376Z,45.99
2023-04-19T12:42:58.962Z,46.93
2023-04-19T12:45:25.519Z,47.31
2023-04-19T12:47:52.223Z,46.70
2023-04-19T12:50:18.776Z,47.51
2023-04-19T12:52:46.185Z,47.77
2023-04-19T12:55:12.882Z,47.67
2023-04-19T12:57:39.729Z,48.00
2023-04-19T13:00:07.445Z,48.05
2023-04-19T13:02:35.297Z,48.37
2023-04-19T13:05:02.489Z,48.04
2023-04-19T13:07:29.229Z,49.05
2023-04-19T13:09:57.010Z,49.13
2023-04-19T13:12:24.136Z,49.34
2023-04-19T13:14:52.422Z,49.44
2023-04-19T13:17:20.294Z,49.05
2023-04-19T13:19:47.711Z,49.58
2023-04-19T13:22:14.561Z,49.23
2023-04-19T13:24:41.368Z,49.12
2023-04-19T13:27:09.102Z,49.19
2023-04-19T13:29:36.041Z,49.67
2023-04-19T13:32:02.693Z,49.88
2023-04-19T13:34:29.446Z,50.15
2023-04-19T13:36:57.611Z,49.71
2023-04-19T13:39:24.334Z,49.86
2023-04-19T13:41:51.246Z,49.96
2023-04-19T13:44:18.197Z,49.94
2023-04-19T13:46:45.174Z,50.62
2023-04-19T13:49:11.867Z,50.51
2023-04-19T13:51:49.018Z,50.03
2023-04-19T13:54:18.560Z,50.72
2023-04-19T13:56:45.932Z,49.72
2023-04-19T13:59:12.638Z,50.01
2023-04-19T14:01:39.281Z,50.18
2023-04-19T14:04:06.150Z,49.88
2023-04-19T14:06:33.077Z,50.31
2023-04-19T14:08:59.620Z,49.88
2023-04-19T14:11:26.265Z,49.42
2023-04-19T14:13:53.422Z,49.85
2023-04-19T14:16:21.088Z,49.82
2023-04-19T14:18:48.109Z,49.68
2023-04-19T14:21:14.687Z,49.40
2023-04-19T14:23:41.220Z,49.95
2023-04-19T14:26:07.913Z,49.73
2023-04-19T14:28:34.462Z,49.60
2023-04-19T14:31:00.989Z,50.04
2023-04-19T14:33:27.908Z,49.26
2023-04-19T14:35:54.711Z,49.45
2023-04-19T14:38:21.265Z,48.87
2023-04-19T14:40:48.247Z,49.26
2023-04-19T14:43:15.766Z,49.76
2023-04-19T14:45:42.292Z,49.49
2023-04-19T14:48:08.979Z,49.70
2023-04-19T14:50:35.610Z,49.40
2023-04-19T14:53:02.158Z,49.44
2023-04-19T14:55:28.761Z,49.51
2023-04-19T14:57:55.660Z,49.72
2023-04-19T15:00:22.262Z,49.85
2023-04-19T15:02:49.019Z,48.96
2023-04-19T15:05:16.239Z,49.62
2023-04-19T15:07:42.979Z,49.41
2023-04-19T15:10:10.069Z,49.76
2023-04-19T15:12:36.590Z,49.61
2023-04-19T15:15:03.464Z,49.13
2023-04-19T15:17:30.163Z,49.02
2023-04-19T15:19:56.783Z,49.13
2023-04-19T15:22:23.435Z,48.54
2023-04-19T15:24:50.035Z,48.22
2023-04-19T15:27:16.553Z,47.78
2023-04-19T15:29:43.078Z,46.51
2023-04-19T15:32:09.667Z,45.49
2023-04-19T15:34:36.236Z,42.65
2023-04-19T15:37:05.936Z,42.81
2023-04-19T15:39:32.528Z,41.85
2023-04-19T15:41:59.212Z,41.50
2023-04-19T15:44:25.849Z,40.98
2023-04-19T15:46:52.386Z,40.41
2023-04-19T15:49:19.227Z,40.90
2023-04-19T15:51:46.138Z,40.81
2023-04-19T15:54:14.356Z,41.37
2023-04-19T15:56:41.073Z,41.30
2023-04-19T15:59:07.696Z,41.40
2023-04-19T16:01:34.274Z,41.17
2023-04-19T16:04:01.070Z,40.96
2023-04-19T16:06:27.689Z,41.56
2023-04-19T16:08:54.261Z,40.98
2023-04-19T16:11:20.983Z,40.81
2023-04-19T16:13:48.471Z,40.72
2023-04-19T16:16:15.239Z,40.93
2023-04-19T16:18:41.792Z,40.41
2023-04-19T16:21:08.599Z,40.28
2023-04-19T16:23:35.282Z,39.83
2023-04-19T16:26:01.934Z,39.19
2023-04-19T16:28:29.262Z,38.72
2023-04-19T16:30:55.981Z,38.88
2023-04-19T16:33:22.677Z,38.67
2023-04-19T16:35:49.250Z,39.34
2023-04-19T16:38:15.784Z,39.54
2023-04-19T16:40:44.496Z,39.60
2023-04-19T16:43:11.088Z,39.19
2023-04-19T16:45:37.762Z,39.87
2023-04-19T16:48:04.550Z,39.79
2023-04-19T16:50:31.261Z,39.32
2023-04-19T16:52:57.843Z,38.63
2023-04-19T16:55:24.595Z,38.19
2023-04-19T16:57:51.275Z,37.93
2023-04-19T17:00:18.112Z,38.41
2023-04-19T17:02:44.877Z,37.30
2023-04-19T17:05:13.795Z,36.54
2023-04-19T17:07:40.440Z,37.30
2023-04-19T17:10:07.759Z,37.50
2023-04-19T17:12:34.308Z,37.86
2023-04-19T17:15:00.977Z,37.78
2023-04-19T17:17:27.532Z,35.87
2023-04-19T17:19:56.557Z,33.48
2023-04-19T17:22:23.408Z,32.07
2023-04-19T17:24:49.932Z,31.73
2023-04-19T17:27:16.442Z,32.57
2023-04-19T17:29:42.937Z,32.26
2023-04-19T17:32:09.500Z,32.24
2023-04-19T17:34:37.082Z,32.13
2023-04-19T17:37:04.084Z,32.66
2023-04-19T17:39:30.720Z,31.76
2023-04-19T17:41:57.309Z,31.87
2023-04-19T17:44:24.327Z,31.61
2023-04-19T17:46:51.027Z,31.71
2023-04-19T17:49:20.059Z,32.51
2023-04-19T17:51:47.380Z,31.91
2023-04-19T17:54:14.472Z,31.87
2023-04-19T17:56:41.312Z,32.23
2023-04-19T17:59:08.458Z,32.30
2023-04-19T18:01:35.138Z,32.18
2023-04-19T18:04:02.010Z,32.07
2023-04-19T18:06:28.793Z,32.39
2023-04-19T18:08:55.315Z,32.57
2023-04-19T18:11:22.937Z,32.66
2023-04-19T18:13:49.521Z,32.83
2023-04-19T18:16:17.365Z,32.89
2023-04-19T18:18:44.400Z,32.84
2023-04-19T18:21:10.917Z,32.32
2023-04-19T18:23:37.622Z,31.76
2023-04-19T18:26:04.313Z,32.36
2023-04-19T18:28:31.138Z,32.02
2023-04-19T18:30:57.728Z,32.63
2023-04-19T18:33:24.446Z,32.48
2023-04-19T18:35:53.184Z,32.17
2023-04-19T18:38:22.625Z,32.26
2023-04-19T18:40:50.284Z,32.06
2023-04-19T18:43:16.845Z,32.33
2023-04-19T18:45:43.395Z,32.91
2023-04-19T18:48:10.347Z,33.15
2023-04-19T18:50:38.166Z,32.89
2023-04-19T18:53:04.758Z,32.85
2023-04-19T18:55:31.637Z,33.67
2023-04-19T18:57:58.183Z,33.65
2023-04-19T19:00:25.367Z,33.79
2023-04-19T19:02:52.886Z,34.25
2023-04-19T19:05:19.988Z,34.46
2023-04-19T19:07:47.266Z,35.03
2023-04-19T19:10:19.186Z,34.65
2023-04-19T19:12:48.340Z,35.01
2023-04-19T19:15:15.056Z,35.86
2023-04-19T19:17:41.697Z,36.02
2023-04-19T19:20:09.948Z,36.30
2023-04-19T19:22:36.553Z,36.49
2023-04-19T19:25:04.065Z,36.09
2023-04-19T19:27:30.708Z,36.20
2023-04-19T19:29:58.793Z,36.86
2023-04-19T19:32:25.490Z,36.25
2023-04-19T19:34:56.241Z,37.17
2023-04-19T19:37:27.638Z,36.99
2023-04-19T19:39:56.317Z,36.81
2023-04-19T19:42:23.808Z,36.54
2023-04-19T19:44:55.007Z,37.29
2023-04-19T19:47:22.571Z,36.90
2023-04-19T19:50:34.982Z,36.60
2023-04-19T19:52:36.456Z,37.27
2023-04-19T19:55:03.145Z,36.53
2023-04-19T19:58:19.061Z,35.98
2023-04-19T20:00:42.119Z,36.68
2023-04-19T20:03:06.720Z,36.07
2023-04-19T20:05:34.090Z,35.86
2023-04-19T20:08:12.451Z,36.44
2023-04-19T20:10:40.577Z,36.60
2023-04-19T20:13:07.256Z,36.36
2023-04-19T20:15:35.827Z,36.45
2023-04-19T20:18:03.533Z,36.29
2023-04-19T20:20:30.155Z,37.05
2023-04-19T20:22:56.808Z,36.88
2023-04-19T20:25:23.626Z,36.47
2023-04-19T20:27:50.137Z,37.18
2023-04-19T20:30:16.737Z,36.73
2023-04-19T20:32:43.383Z,36.82
2023-04-19T20:35:12.126Z,37.04
2023-04-19T20:37:42.470Z,37.17
2023-04-19T20:40:11.798Z,37.87
2023-04-19T20:42:38.738Z,38.35
2023-04-19T20:45:07.008Z,38.16
2023-04-19T20:47:33.853Z,38.52
2023-04-19T20:50:00.668Z,39.15
2023-04-19T20:52:27.213Z,39.88
2023-04-19T20:54:55.615Z,40.37
2023-04-19T20:57:22.431Z,40.58
2023-04-19T20:59:49.137Z,40.20
2023-04-19T21:02:15.983Z,40.58
2023-04-19T21:04:42.669Z,41.10
2023-04-19T21:07:09.487Z,40.84
2023-04-19T21:09:36.091Z,41.02
2023-04-19T21:12:02.709Z,40.90
2023-04-19T21:14:38.423Z,42.05
2023-04-19T21:17:05.152Z,41.88
2023-04-19T21:19:31.740Z,42.15
2023-04-19T21:21:58.708Z,42.23
2023-04-19T21:24:25.366Z,42.83
2023-04-19T21:26:51.912Z,42.85
2023-04-19T21:29:18.907Z,43.25
2023-04-19T21:31:45.757Z,43.39
2023-04-19T21:34:12.359Z,43.09
2023-04-19T21:36:38.902Z,43.41
2023-04-19T21:39:05.477Z,43.74
2023-04-19T21:41:32.189Z,43.47
2023-04-19T21:43:58.720Z,43.90
2023-04-19T21:46:25.373Z,43.80
2023-04-19T21:48:54.267Z,44.21
2023-04-19T21:51:22.211Z,44.02
2023-04-19T21:53:48.770Z,43.65
2023-04-19T21:56:15.304Z,43.89
2023-04-19T21:58:41.831Z,44.03
2023-04-19T22:01:08.527Z,44.65
2023-04-19T22:03:35.227Z,45.29
2023-04-19T22:06:02.219Z,45.63
2023-04-19T22:08:31.499Z,46.19
2023-04-19T22:11:00.330Z,46.33
2023-04-19T22:13:28.350Z,46.09
2023-04-19T22:15:57.088Z,47.05
2023-04-19T22:18:24.144Z,47.64
2023-04-19T22:20:52.189Z,47.45
2023-04-19T22:23:19.037Z,47.47
2023-04-19T22:25:46.013Z,47.51
2023-04-19T22:28:13.011Z,47.75
2023-04-19T22:30:39.685Z,47.63
2023-04-19T22:33:06.599Z,47.66
2023-04-19T22:35:33.204Z,48.03
2023-04-19T22:37:59.739Z,47.72
2023-04-19T22:40:26.309Z,47.82
2023-04-19T22:42:52.878Z,48.16
2023-04-19T22:45:19.428Z,48.44
2023-04-19T22:47:46.075Z,48.71
2023-04-19T22:50:12.832Z,48.90
2023-04-19T22:52:39.444Z,48.92
2023-04-19T22:55:06.971Z,48.51
2023-04-19T22:57:33.605Z,48.90
2023-04-19T23:00:00.443Z,48.90
2023-04-19T23:02:26.982Z,48.67
2023-04-19T23:04:54.418Z,48.92
2023-04-19T23:07:21.971Z,49.31
2023-04-19T23:09:49.733Z,49.25
2023-04-19T23:12:17.410Z,49.53
2023-04-19T23:14:44.003Z,49.75
2023-04-19T23:17:10.593Z,49.99
2023-04-19T23:19:38.734Z,49.36
2023-04-19T23:22:05.445Z,49.56
2023-04-19T23:24:32.129Z,49.91
2023-04-19T23:26:58.717Z,49.91
2023-04-19T23:29:25.314Z,50.07
2023-04-19T23:31:51.876Z,50.15
2023-04-19T23:34:18.757Z,50.59
2023-04-19T23:36:45.432Z,50.80
2023-04-19T23:39:12.216Z,50.91
2023-04-19T23:41:38.812Z,50.87
2023-04-19T23:44:05.598Z,50.84
2023-04-19T23:46:32.179Z,50.93
2023-04-19T23:48:58.826Z,50.83
2023-04-19T23:51:25.354Z,50.44
2023-04-19T23:53:51.886Z,50.96
2023-04-19T23:56:18.486Z,50.60
2023-04-19T23:58:45.186Z,50.96
